createdAt,value
2022-10-22T00:02:27.724Z,14.40
2022-10-22T00:04:56.919Z,14.40
2022-10-22T00:07:24.188Z,14.30
2022-10-22T00:09:50.974Z,14.30
2022-10-22T00:12:17.866Z,14.30
2022-10-22T00:14:44.700Z,14.30
2022-10-22T00:17:12.291Z,14.30
2022-10-22T00:19:40.357Z,14.40
2022-10-22T00:22:10.016Z,14.30
2022-10-22T00:24:38.752Z,14.30
2022-10-22T00:27:06.664Z,14.40
2022-10-22T00:29:33.477Z,14.30
2022-10-22T00:32:00.464Z,14.30
2022-10-22T00:34:27.602Z,14.30
2022-10-22T00:36:55.819Z,14.30
2022-10-22T00:39:24.485Z,14.30
2022-10-22T00:41:53.735Z,14.30
2022-10-22T00:44:58.145Z,14.40
2022-10-22T00:47:27.427Z,14.30
2022-10-22T00:49:56.107Z,14.20
2022-10-22T00:52:23.071Z,14.30
2022-10-22T00:54:50.931Z,14.30
2022-10-22T00:57:19.339Z,14.30
2022-10-22T00:59:46.857Z,14.30
2022-10-22T01:02:14.692Z,14.40
2022-10-22T01:04:41.595Z,14.30
2022-10-22T01:07:17.409Z,14.30
2022-10-22T01:10:08.844Z,14.30
2022-10-22T01:12:50.791Z,14.30
2022-10-22T01:15:34.850Z,14.30
2022-10-22T01:18:13.752Z,14.20
2022-10-22T01:20:54.014Z,14.20
2022-10-22T01:23:35.946Z,14.20
2022-10-22T01:26:02.678Z,14.20
2022-10-22T01:28:54.614Z,14.20
2022-10-22T01:31:23.651Z,14.10
2022-10-22T01:33:53.100Z,14.20
2022-10-22T01:36:20.999Z,14.20
2022-10-22T01:38:49.936Z,14.20
2022-10-22T01:41:17.041Z,14.20
2022-10-22T01:43:43.769Z,14.10
2022-10-22T01:46:12.447Z,14.00
2022-10-22T01:49:00.647Z,14.00
2022-10-22T01:51:49.964Z,14.00
2022-10-22T01:54:22.920Z,14.00
2022-10-22T01:56:55.301Z,14.00
2022-10-22T01:59:48.421Z,13.90
2022-10-22T02:02:26.723Z,13.90
2022-10-22T02:05:07.600Z,13.80
2022-10-22T02:07:45.856Z,13.80
2022-10-22T02:10:14.041Z,13.80
2022-10-22T02:12:43.492Z,13.80
2022-10-22T02:15:12.095Z,13.80
2022-10-22T02:17:40.288Z,13.80
2022-10-22T02:20:16.715Z,13.80
2022-10-22T02:22:44.119Z,13.80
2022-10-22T02:25:12.521Z,13.80
2022-10-22T02:27:49.387Z,13.70
2022-10-22T02:30:21.232Z,13.70
2022-10-22T02:32:52.065Z,13.60
2022-10-22T02:35:22.158Z,13.60
2022-10-22T02:37:50.196Z,13.50
2022-10-22T02:40:18.228Z,13.50
2022-10-22T02:42:48.466Z,13.50
2022-10-22T02:45:16.876Z,13.40
2022-10-22T02:47:44.123Z,13.40
2022-10-22T02:50:11.100Z,13.40
2022-10-22T02:52:38.747Z,13.40
2022-10-22T02:55:06.420Z,13.40
2022-10-22T02:57:33.582Z,13.40
2022-10-22T03:00:00.379Z,13.40
2022-10-22T03:02:27.113Z,13.40
2022-10-22T03:04:53.843Z,13.30
2022-10-22T03:07:20.704Z,13.30
2022-10-22T03:09:47.451Z,13.30
2022-10-22T03:12:14.231Z,13.30
2022-10-22T03:14:40.927Z,13.30
2022-10-22T03:17:07.746Z,13.30
2022-10-22T03:19:34.897Z,13.30
2022-10-22T03:22:13.612Z,13.40
2022-10-22T03:24:44.774Z,13.40
2022-10-22T03:27:15.045Z,13.30
2022-10-22T03:29:42.831Z,13.30
2022-10-22T03:32:09.659Z,13.30
2022-10-22T03:34:36.392Z,13.30
2022-10-22T03:37:03.266Z,13.30
2022-10-22T03:39:33.152Z,13.30
2022-10-22T03:42:00.180Z,13.20
2022-10-22T03:44:27.538Z,13.20
2022-10-22T03:46:58.606Z,13.10
2022-10-22T03:49:28.459Z,13.10
2022-10-22T03:51:55.205Z,13.10
2022-10-22T03:54:22.437Z,13.10
2022-10-22T03:56:49.208Z,13.00
2022-10-22T03:59:16.625Z,13.00
2022-10-22T04:01:44.202Z,13.00
2022-10-22T04:04:11.845Z,11.60
2022-10-22T04:06:39.032Z,12.60
2022-10-22T04:09:06.856Z,12.50
2022-10-22T04:11:34.509Z,12.80
2022-10-22T04:14:01.610Z,12.70
2022-10-22T04:16:31.290Z,12.40
2022-10-22T04:18:58.635Z,12.70
2022-10-22T04:21:25.673Z,12.60
2022-10-22T04:23:53.858Z,12.10
2022-10-22T04:26:21.454Z,12.70
2022-10-22T04:28:51.731Z,12.70
2022-10-22T04:31:21.554Z,12.70
2022-10-22T04:33:52.450Z,12.70
2022-10-22T04:36:19.628Z,12.80
2022-10-22T04:38:48.461Z,13.90
2022-10-22T04:41:20.337Z,10.90
2022-10-22T04:43:48.464Z,13.00
2022-10-22T04:46:17.613Z,13.90
2022-10-22T04:48:45.710Z,13.40
2022-10-22T04:51:17.933Z,12.80
2022-10-22T04:53:45.568Z,12.80
2022-10-22T04:56:16.733Z,12.90
2022-10-22T04:58:44.131Z,12.80
2022-10-22T05:01:17.966Z,12.80
2022-10-22T05:03:45.875Z,12.80
2022-10-22T05:08:45.166Z,12.70
2022-10-22T05:11:20.175Z,12.60
2022-10-22T05:13:47.619Z,12.40
2022-10-22T05:16:15.092Z,12.40
2022-10-22T05:18:44.414Z,12.50
2022-10-22T05:21:14.420Z,12.50
2022-10-22T05:23:41.388Z,12.40
2022-10-22T05:26:09.974Z,12.50
2022-10-22T05:28:38.823Z,12.50
2022-10-22T05:31:07.188Z,12.60
2022-10-22T05:33:34.930Z,12.60
2022-10-22T05:36:02.764Z,12.70
2022-10-22T05:38:29.548Z,12.70
2022-10-22T05:41:04.690Z,12.80
2022-10-22T05:43:31.855Z,12.90
2022-10-22T05:46:04.070Z,12.90
2022-10-22T05:51:08.663Z,12.90
2022-10-22T05:53:38.304Z,13.00
2022-10-22T05:56:07.539Z,13.00
2022-10-22T05:58:36.519Z,13.00
2022-10-22T06:01:09.241Z,13.00
2022-10-22T06:03:36.374Z,13.10
2022-10-22T06:06:07.544Z,13.20
2022-10-22T06:08:38.088Z,13.30
2022-10-22T06:11:05.450Z,13.30
2022-10-22T06:13:32.833Z,13.40
2022-10-22T06:15:59.776Z,13.50
2022-10-22T06:18:29.674Z,13.60
2022-10-22T06:20:56.784Z,13.60
2022-10-22T06:23:23.614Z,13.70
2022-10-22T06:25:57.919Z,13.80
2022-10-22T06:30:58.809Z,13.90
2022-10-22T06:33:26.660Z,14.00
2022-10-22T06:35:54.270Z,14.10
2022-10-22T06:38:21.570Z,14.30
2022-10-22T06:40:48.722Z,14.40
2022-10-22T06:43:15.522Z,14.40
2022-10-22T06:45:42.716Z,14.50
2022-10-22T06:48:09.456Z,14.40
2022-10-22T06:50:36.590Z,14.60
2022-10-22T06:53:03.462Z,14.70
2022-10-22T06:55:30.642Z,14.70
2022-10-22T06:57:57.495Z,14.80
2022-10-22T07:00:24.690Z,14.90
2022-10-22T07:02:56.469Z,15.00
2022-10-22T07:05:26.278Z,15.00
2022-10-22T07:07:53.047Z,15.10
2022-10-22T07:10:20.436Z,15.30
2022-10-22T07:12:47.273Z,15.30
2022-10-22T07:15:14.161Z,15.40
2022-10-22T07:20:07.983Z,15.60
2022-10-22T07:22:35.127Z,15.70
2022-10-22T07:25:07.196Z,15.80
2022-10-22T07:27:34.318Z,15.90
2022-10-22T07:30:01.518Z,16.00
2022-10-22T07:32:28.502Z,16.50
2022-10-22T07:34:55.278Z,16.50
2022-10-22T07:37:22.390Z,16.50
2022-10-22T07:39:49.613Z,16.60
2022-10-22T07:42:16.867Z,16.70
2022-10-22T07:44:43.602Z,16.70
2022-10-22T07:47:10.404Z,16.80
2022-10-22T07:49:37.535Z,17.00
2022-10-22T07:52:06.580Z,17.10
2022-10-22T07:54:33.905Z,17.20
2022-10-22T07:57:00.755Z,17.40
2022-10-22T07:59:27.488Z,17.50
2022-10-22T08:01:54.582Z,17.70
2022-10-22T08:04:21.282Z,17.70
2022-10-22T08:06:48.088Z,17.80
2022-10-22T08:09:15.554Z,18.00
2022-10-22T08:11:42.423Z,18.10
2022-10-22T08:14:09.176Z,18.20
2022-10-22T08:16:36.272Z,18.40
2022-10-22T08:19:03.033Z,18.50
2022-10-22T08:21:29.878Z,18.50
2022-10-22T08:23:56.653Z,18.60
2022-10-22T08:26:23.949Z,18.80
2022-10-22T08:28:50.628Z,19.10
2022-10-22T08:31:17.369Z,19.30
2022-10-22T08:33:44.152Z,19.60
2022-10-22T08:36:10.919Z,19.80
2022-10-22T08:38:38.051Z,20.00
2022-10-22T08:41:17.916Z,20.20
2022-10-22T08:43:55.188Z,20.40
2022-10-22T08:46:58.981Z,20.60
2022-10-22T08:49:29.995Z,20.70
2022-10-22T08:52:00.511Z,20.90
2022-10-22T08:54:50.948Z,21.10
2022-10-22T08:57:36.990Z,21.30
2022-10-22T09:00:10.746Z,21.20
2022-10-22T09:02:41.711Z,21.40
2022-10-22T09:05:22.639Z,21.50
2022-10-22T09:07:50.138Z,21.50
2022-10-22T09:10:20.066Z,21.60
2022-10-22T09:12:48.649Z,21.80
2022-10-22T09:15:17.380Z,22.10
2022-10-22T09:17:58.654Z,22.40
2022-10-22T09:20:36.864Z,22.60
2022-10-22T09:23:13.120Z,22.80
2022-10-22T09:25:40.980Z,22.80
2022-10-22T09:28:09.991Z,22.90
2022-10-22T09:30:38.943Z,23.00
2022-10-22T09:33:14.109Z,23.10
2022-10-22T09:35:53.368Z,23.00
2022-10-22T09:38:25.991Z,22.90
2022-10-22T09:40:55.534Z,22.90
2022-10-22T09:43:22.517Z,23.00
2022-10-22T09:45:56.175Z,23.10
2022-10-22T09:48:39.238Z,23.30
2022-10-22T09:51:10.892Z,23.50
2022-10-22T09:53:55.553Z,23.60
2022-10-22T09:56:37.820Z,23.80
2022-10-22T09:59:04.871Z,23.70
2022-10-22T10:01:38.522Z,23.60
2022-10-22T10:04:11.318Z,23.70
2022-10-22T10:06:40.984Z,23.60
2022-10-22T10:09:20.799Z,23.50
2022-10-22T10:12:08.106Z,23.40
2022-10-22T10:14:54.494Z,23.20
2022-10-22T10:17:42.243Z,23.20
2022-10-22T10:20:29.748Z,23.20
2022-10-22T10:23:24.636Z,23.20
2022-10-22T10:26:01.631Z,23.10
2022-10-22T10:28:43.465Z,23.10
2022-10-22T10:31:12.947Z,23.20
2022-10-22T10:33:57.756Z,23.60
2022-10-22T10:36:54.497Z,23.40
2022-10-22T10:39:55.950Z,23.50
2022-10-22T10:42:32.061Z,23.50
2022-10-22T10:45:13.589Z,23.60
2022-10-22T10:48:02.012Z,23.70
2022-10-22T10:50:55.143Z,23.80
2022-10-22T10:53:29.912Z,23.90
2022-10-22T10:56:24.032Z,24.10
2022-10-22T10:59:00.957Z,24.30
2022-10-22T11:01:52.049Z,24.30
2022-10-22T11:04:25.735Z,24.40
2022-10-22T11:07:10.752Z,24.50
2022-10-22T11:09:54.410Z,24.50
2022-10-22T11:12:29.154Z,24.30
2022-10-22T11:15:17.082Z,24.20
2022-10-22T11:17:48.099Z,24.20
2022-10-22T11:20:45.100Z,24.00
2022-10-22T11:23:19.849Z,23.90
2022-10-22T11:25:49.317Z,23.70
2022-10-22T11:28:38.508Z,23.60
2022-10-22T11:31:16.777Z,23.50
2022-10-22T11:33:46.715Z,23.30
2022-10-22T11:36:15.215Z,23.30
2022-10-22T11:38:41.960Z,23.10
2022-10-22T11:41:18.569Z,23.00
2022-10-22T11:44:07.253Z,23.00
2022-10-22T11:46:46.993Z,23.00
2022-10-22T11:49:13.673Z,22.80
2022-10-22T11:51:42.343Z,22.80
2022-10-22T11:54:37.331Z,22.80
2022-10-22T11:57:17.402Z,22.70
2022-10-22T11:59:47.087Z,22.70
2022-10-22T12:02:45.937Z,22.70
2022-10-22T12:05:22.262Z,22.70
2022-10-22T12:07:58.703Z,22.70
2022-10-22T12:10:54.020Z,22.70
2022-10-22T12:13:59.255Z,22.60
2022-10-22T12:16:37.849Z,22.70
2022-10-22T12:19:23.845Z,22.70
2022-10-22T12:21:55.320Z,22.80
2022-10-22T12:24:23.839Z,22.90
2022-10-22T12:26:52.729Z,23.10
2022-10-22T12:29:26.631Z,23.10
2022-10-22T12:31:54.950Z,23.20
2022-10-22T12:34:23.867Z,23.30
2022-10-22T12:36:52.924Z,23.40
2022-10-22T12:39:24.682Z,23.50
2022-10-22T12:41:53.912Z,23.70
2022-10-22T12:44:20.651Z,23.80
2022-10-22T12:46:52.914Z,23.80
2022-10-22T12:49:38.604Z,23.90
2022-10-22T12:52:10.831Z,23.90
2022-10-22T12:54:40.613Z,23.90
2022-10-22T12:57:14.551Z,24.00
2022-10-22T12:59:47.239Z,24.00
2022-10-22T13:02:24.496Z,23.90
2022-10-22T13:05:07.773Z,23.80
2022-10-22T13:07:44.223Z,23.80
2022-10-22T13:10:32.271Z,23.70
2022-10-22T13:12:59.675Z,23.60
2022-10-22T13:15:29.865Z,23.20
2022-10-22T13:18:17.380Z,24.90
2022-10-22T13:20:55.956Z,23.60
2022-10-22T13:23:26.028Z,23.60
2022-10-22T13:26:19.886Z,23.70
2022-10-22T13:28:55.555Z,23.70
2022-10-22T13:31:34.297Z,23.70
2022-10-22T13:34:08.441Z,23.70
2022-10-22T13:36:37.673Z,23.60
2022-10-22T13:39:08.903Z,23.50
2022-10-22T13:44:06.933Z,23.50
2022-10-22T13:46:37.800Z,23.50
2022-10-22T13:49:04.833Z,23.50
2022-10-22T13:51:37.422Z,23.50
2022-10-22T13:54:29.957Z,23.50
2022-10-22T13:56:56.657Z,23.50
2022-10-22T13:59:23.947Z,23.50
2022-10-22T14:01:51.322Z,23.50
2022-10-22T14:04:18.062Z,23.50
2022-10-22T14:06:45.066Z,23.50
2022-10-22T14:09:15.800Z,23.50
2022-10-22T14:11:43.163Z,23.50
2022-10-22T14:14:14.063Z,23.40
2022-10-22T14:16:41.093Z,23.40
2022-10-22T14:19:14.381Z,23.40
2022-10-22T14:21:41.134Z,23.30
2022-10-22T14:24:12.926Z,23.20
2022-10-22T14:26:40.439Z,23.00
2022-10-22T14:29:09.784Z,22.90
2022-10-22T14:34:15.603Z,22.70
2022-10-22T14:36:45.218Z,22.60
2022-10-22T14:39:12.849Z,22.60
2022-10-22T14:41:40.966Z,22.60
2022-10-22T14:44:14.226Z,22.50
2022-10-22T14:46:43.897Z,22.50
2022-10-22T14:49:11.089Z,22.50
2022-10-22T14:51:38.311Z,22.50
2022-10-22T14:54:05.044Z,22.50
2022-10-22T14:56:32.159Z,22.50
2022-10-22T14:58:58.872Z,22.50
2022-10-22T15:01:25.600Z,22.50
2022-10-22T15:03:52.307Z,22.50
2022-10-22T15:06:19.010Z,22.40
2022-10-22T15:08:45.813Z,22.50
2022-10-22T15:11:12.859Z,22.50
2022-10-22T15:13:41.370Z,22.50
2022-10-22T15:16:10.269Z,22.50
2022-10-22T15:18:37.546Z,22.40
2022-10-22T15:21:07.509Z,22.30
2022-10-22T15:23:36.065Z,22.20
2022-10-22T15:26:02.761Z,22.10
2022-10-22T15:28:29.492Z,21.90
2022-10-22T15:30:58.407Z,21.70
2022-10-22T15:33:26.986Z,21.60
2022-10-22T15:35:53.987Z,21.60
2022-10-22T15:38:21.647Z,21.60
2022-10-22T15:40:48.797Z,21.80
2022-10-22T15:43:15.475Z,21.90
2022-10-22T15:45:42.628Z,21.90
2022-10-22T15:48:11.380Z,21.90
2022-10-22T15:50:40.191Z,22.00
2022-10-22T15:53:06.938Z,22.00
2022-10-22T15:55:33.743Z,22.10
2022-10-22T15:58:03.289Z,22.20
2022-10-22T16:00:31.169Z,22.30
2022-10-22T16:02:57.847Z,22.20
2022-10-22T16:05:27.493Z,22.20
2022-10-22T16:07:56.446Z,22.10
2022-10-22T16:10:23.677Z,22.10
2022-10-22T16:12:51.734Z,22.00
2022-10-22T16:15:19.063Z,22.00
2022-10-22T16:17:45.852Z,21.90
2022-10-22T16:22:44.574Z,21.80
2022-10-22T16:25:11.789Z,21.60
2022-10-22T16:27:39.223Z,21.40
2022-10-22T16:30:06.456Z,21.30
2022-10-22T16:32:33.572Z,21.10
2022-10-22T16:35:00.278Z,21.10
2022-10-22T16:37:27.922Z,21.00
2022-10-22T16:39:55.107Z,21.00
2022-10-22T16:42:21.878Z,20.90
2022-10-22T16:44:48.596Z,20.70
2022-10-22T16:47:15.299Z,20.50
2022-10-22T16:49:42.005Z,20.40
2022-10-22T16:52:08.716Z,20.40
2022-10-22T16:54:35.864Z,20.30
2022-10-22T16:57:02.593Z,20.20
2022-10-22T16:59:29.335Z,20.20
2022-10-22T17:01:56.123Z,20.10
2022-10-22T17:04:23.667Z,20.00
2022-10-22T17:06:50.427Z,20.00
2022-10-22T17:09:17.178Z,19.90
2022-10-22T17:11:44.902Z,20.00
2022-10-22T17:14:12.053Z,20.10
2022-10-22T17:16:38.811Z,20.00
2022-10-22T17:19:05.842Z,19.90
2022-10-22T17:21:33.992Z,19.90
2022-10-22T17:24:00.850Z,20.00
2022-10-22T17:26:27.796Z,20.10
2022-10-22T17:28:55.151Z,20.20
2022-10-22T17:31:32.968Z,20.40
2022-10-22T17:34:00.042Z,20.30
2022-10-22T17:36:29.346Z,20.40
2022-10-22T17:39:00.427Z,20.80
2022-10-22T17:41:29.949Z,20.90
2022-10-22T17:43:58.049Z,21.00
2022-10-22T17:46:26.813Z,21.00
2022-10-22T17:48:57.357Z,21.00
2022-10-22T17:51:25.919Z,20.90
2022-10-22T17:53:52.990Z,20.60
2022-10-22T17:56:22.774Z,20.40
2022-10-22T17:58:50.027Z,20.40
2022-10-22T18:01:40.240Z,20.40
2022-10-22T18:04:08.790Z,20.40
2022-10-22T18:06:36.026Z,20.30
2022-10-22T18:09:11.519Z,20.20
2022-10-22T18:11:40.548Z,20.40
2022-10-22T18:14:08.261Z,20.40
2022-10-22T18:16:35.507Z,20.30
2022-10-22T18:19:02.420Z,20.20
2022-10-22T18:21:30.172Z,20.20
2022-10-22T18:23:58.033Z,20.00
2022-10-22T18:26:26.926Z,19.70
2022-10-22T18:28:55.240Z,19.70
2022-10-22T18:31:24.777Z,19.50
2022-10-22T18:33:51.709Z,19.20
2022-10-22T18:36:21.209Z,19.00
2022-10-22T18:39:01.420Z,19.00
2022-10-22T18:41:30.341Z,18.90
2022-10-22T18:43:59.396Z,18.80
2022-10-22T18:46:26.816Z,18.70
2022-10-22T18:48:54.942Z,18.60
2022-10-22T18:51:22.338Z,18.60
2022-10-22T18:54:05.035Z,18.50
2022-10-22T18:56:32.796Z,18.40
2022-10-22T18:58:59.720Z,18.30
2022-10-22T19:01:30.019Z,18.20
2022-10-22T19:03:57.068Z,18.10
2022-10-22T19:06:35.793Z,18.00
2022-10-22T19:09:04.718Z,17.90
2022-10-22T19:11:32.635Z,17.80
2022-10-22T19:13:59.415Z,18.60
2022-10-22T19:16:27.296Z,17.90
2022-10-22T19:19:00.418Z,17.80
2022-10-22T19:21:27.547Z,17.80
2022-10-22T19:23:58.866Z,17.80
2022-10-22T19:26:27.667Z,17.80
2022-10-22T19:28:55.555Z,17.70
2022-10-22T19:31:23.844Z,17.80
2022-10-22T19:33:54.512Z,17.90
2022-10-22T19:36:24.274Z,17.80
2022-10-22T19:38:51.986Z,17.80
2022-10-22T19:41:21.223Z,17.80
2022-10-22T19:43:51.179Z,17.80
2022-10-22T19:46:18.550Z,17.70
2022-10-22T19:51:18.167Z,17.70
2022-10-22T19:53:45.068Z,17.70
2022-10-22T19:56:12.932Z,17.60
2022-10-22T19:58:39.950Z,17.60
2022-10-22T20:01:09.311Z,17.50
2022-10-22T20:03:37.238Z,17.60
2022-10-22T20:06:06.270Z,17.60
2022-10-22T20:08:35.986Z,17.50
2022-10-22T20:11:03.360Z,17.50
2022-10-22T20:13:30.146Z,17.50
2022-10-22T20:15:57.399Z,17.60
2022-10-22T20:18:24.181Z,17.60
2022-10-22T20:20:50.989Z,17.60
2022-10-22T20:23:17.807Z,17.60
2022-10-22T20:25:46.752Z,17.60
2022-10-22T20:28:17.076Z,17.70
2022-10-22T20:30:46.273Z,17.80
2022-10-22T20:33:13.491Z,17.70
2022-10-22T20:35:40.515Z,17.70
2022-10-22T20:38:10.917Z,17.60
2022-10-22T20:40:37.695Z,17.60
2022-10-22T20:43:04.826Z,17.50
2022-10-22T20:45:31.575Z,17.50
2022-10-22T20:48:02.719Z,17.50
2022-10-22T20:50:32.168Z,17.50
2022-10-22T20:52:59.823Z,17.40
2022-10-22T20:55:27.438Z,17.40
2022-10-22T20:57:55.031Z,17.40
2022-10-22T21:00:21.851Z,17.40
2022-10-22T21:02:49.007Z,17.40
2022-10-22T21:05:16.962Z,17.40
2022-10-22T21:07:44.809Z,17.40
2022-10-22T21:10:12.031Z,17.50
2022-10-22T21:12:41.972Z,17.50
2022-10-22T21:15:12.549Z,17.40
2022-10-22T21:17:40.706Z,17.40
2022-10-22T21:20:08.275Z,17.30
2022-10-22T21:22:35.437Z,17.20
2022-10-22T21:25:02.191Z,17.20
2022-10-22T21:27:29.319Z,17.20
2022-10-22T21:29:56.138Z,17.10
2022-10-22T21:32:22.890Z,17.10
2022-10-22T21:34:49.995Z,17.10
2022-10-22T21:37:16.730Z,17.10
2022-10-22T21:39:43.653Z,17.10
2022-10-22T21:42:10.411Z,17.10
2022-10-22T21:44:37.532Z,17.10
2022-10-22T21:47:04.522Z,17.10
2022-10-22T21:49:31.332Z,17.10
2022-10-22T21:52:00.020Z,17.10
2022-10-22T21:54:26.917Z,17.10
2022-10-22T21:56:53.690Z,17.10
2022-10-22T21:59:20.853Z,17.10
2022-10-22T22:01:48.009Z,17.00
2022-10-22T22:04:15.190Z,16.90
2022-10-22T22:06:41.938Z,17.00
2022-10-22T22:09:08.836Z,17.10
2022-10-22T22:11:36.651Z,17.00
2022-10-22T22:14:03.399Z,17.10
2022-10-22T22:16:32.323Z,17.10
2022-10-22T22:19:02.132Z,17.10
2022-10-22T22:21:32.708Z,17.10
2022-10-22T22:23:59.810Z,17.10
2022-10-22T22:26:30.078Z,17.20
2022-10-22T22:29:03.909Z,17.20
2022-10-22T22:31:33.148Z,17.30
2022-10-22T22:34:05.864Z,17.40
2022-10-22T22:36:35.907Z,17.40
2022-10-22T22:39:03.939Z,17.40
2022-10-22T22:41:30.777Z,17.30
2022-10-22T22:43:57.513Z,17.30
2022-10-22T22:46:24.329Z,17.20
2022-10-22T22:48:51.493Z,17.10
2022-10-22T22:51:18.568Z,17.20
2022-10-22T22:53:45.858Z,17.10
2022-10-22T22:56:16.397Z,17.20
2022-10-22T22:58:43.211Z,17.10
2022-10-22T23:01:21.732Z,17.10
2022-10-22T23:03:54.222Z,17.10
2022-10-22T23:06:20.981Z,17.10
2022-10-22T23:08:52.833Z,17.10
2022-10-22T23:11:22.080Z,17.00
2022-10-22T23:14:01.985Z,17.00
2022-10-22T23:16:35.261Z,17.10
2022-10-22T23:19:02.553Z,17.10
2022-10-22T23:21:35.392Z,17.00
2022-10-22T23:24:05.454Z,17.00
2022-10-22T23:26:35.549Z,16.70
2022-10-22T23:29:15.875Z,16.90
2022-10-22T23:31:44.190Z,17.00
2022-10-22T23:34:12.708Z,17.00
2022-10-22T23:36:40.048Z,17.00
2022-10-22T23:39:08.629Z,16.90
2022-10-22T23:41:35.613Z,16.90
2022-10-22T23:44:03.204Z,16.90
2022-10-22T23:46:30.074Z,17.00
2022-10-22T23:48:57.354Z,17.00
2022-10-22T23:51:24.194Z,16.90
2022-10-22T23:53:56.372Z,16.80
2022-10-22T23:56:23.393Z,16.80
2022-10-22T23:58:52.051Z,16.80
